createdAt,value
2023-03-29T00:01:34.936Z,2.78
2023-03-29T00:04:04.562Z,5.00
2023-03-29T00:06:33.186Z,2.03
2023-03-29T00:09:00.364Z,2.35
2023-03-29T00:11:27.413Z,3.03
2023-03-29T00:13:54.210Z,4.15
2023-03-29T00:16:20.784Z,3.28
2023-03-29T00:18:47.474Z,2.13
2023-03-29T00:21:14.101Z,3.90
2023-03-29T00:23:40.716Z,4.77
2023-03-29T00:26:08.399Z,2.72
2023-03-29T00:28:35.438Z,3.03
2023-03-29T00:31:07.398Z,2.90
2023-03-29T00:33:34.166Z,2.97
2023-03-29T00:36:01.750Z,3.23
2023-03-29T00:38:28.410Z,2.55
2023-03-29T00:40:54.877Z,3.15
2023-03-29T00:43:21.401Z,4.32
2023-03-29T00:45:48.379Z,2.03
2023-03-29T00:48:22.301Z,3.53
2023-03-29T00:51:00.029Z,3.63
2023-03-29T00:53:35.836Z,2.08
2023-03-29T00:56:06.251Z,5.85
2023-03-29T00:58:38.206Z,6.32
2023-03-29T01:01:10.779Z,3.07
2023-03-29T01:03:46.253Z,3.38
2023-03-29T01:06:16.015Z,2.40
2023-03-29T01:08:53.374Z,3.60
2023-03-29T01:11:29.132Z,2.38
2023-03-29T01:14:00.106Z,4.27
2023-03-29T01:16:28.965Z,5.25
2023-03-29T01:18:58.251Z,2.40
2023-03-29T01:21:33.366Z,2.83
2023-03-29T01:24:10.105Z,1.52
2023-03-29T01:26:47.507Z,3.43
2023-03-29T01:29:39.129Z,2.92
2023-03-29T01:32:17.154Z,3.20
2023-03-29T01:35:00.943Z,2.53
2023-03-29T01:37:56.815Z,2.33
2023-03-29T01:40:24.277Z,2.90
2023-03-29T01:43:01.083Z,2.80
2023-03-29T01:45:37.002Z,2.53
2023-03-29T01:48:11.849Z,3.33
2023-03-29T01:50:38.368Z,3.15
2023-03-29T01:53:12.636Z,3.63
2023-03-29T01:55:43.604Z,4.15
2023-03-29T01:58:13.501Z,3.97
2023-03-29T02:00:42.165Z,4.22
2023-03-29T02:03:10.275Z,2.55
2023-03-29T02:05:39.418Z,4.73
2023-03-29T02:08:09.192Z,5.40
2023-03-29T02:10:36.782Z,3.88
2023-03-29T02:13:04.062Z,4.13
2023-03-29T02:15:30.516Z,4.90
2023-03-29T02:17:57.039Z,2.97
2023-03-29T02:20:31.739Z,2.72
2023-03-29T02:23:09.709Z,3.83
2023-03-29T02:25:37.831Z,2.22
2023-03-29T02:28:06.708Z,2.88
2023-03-29T02:30:49.292Z,5.90
2023-03-29T02:33:32.771Z,1.70
2023-03-29T02:36:04.595Z,3.85
2023-03-29T02:38:32.724Z,3.75
2023-03-29T02:41:00.859Z,2.50
2023-03-29T02:43:28.871Z,4.13
2023-03-29T02:45:56.036Z,3.47
2023-03-29T02:48:26.675Z,2.83
2023-03-29T02:50:58.328Z,2.40
2023-03-29T02:53:30.554Z,4.65
2023-03-29T02:55:57.783Z,2.63
2023-03-29T02:58:26.567Z,5.20
2023-03-29T03:00:53.723Z,5.90
2023-03-29T03:03:20.772Z,5.15
2023-03-29T03:05:47.714Z,4.78
2023-03-29T03:08:14.219Z,7.10
2023-03-29T03:10:40.959Z,2.70
2023-03-29T03:13:07.401Z,4.07
2023-03-29T03:15:35.792Z,6.60
2023-03-29T03:18:03.698Z,3.88
2023-03-29T03:20:31.062Z,4.97
2023-03-29T03:22:57.472Z,2.70
2023-03-29T03:25:24.048Z,4.03
2023-03-29T03:27:51.858Z,4.50
2023-03-29T03:30:18.907Z,3.33
2023-03-29T03:32:45.428Z,2.97
2023-03-29T03:35:12.435Z,4.47
2023-03-29T03:37:39.616Z,4.65
2023-03-29T03:40:11.999Z,5.38
2023-03-29T03:42:39.579Z,4.55
2023-03-29T03:45:08.209Z,3.73
2023-03-29T03:47:37.322Z,4.50
2023-03-29T03:50:05.482Z,2.70
2023-03-29T03:52:31.998Z,4.50
2023-03-29T03:54:58.421Z,3.90
2023-03-29T03:57:24.854Z,4.07
2023-03-29T03:59:52.240Z,5.28
2023-03-29T04:02:20.156Z,3.25
2023-03-29T04:04:46.651Z,6.50
2023-03-29T04:07:14.374Z,3.72
2023-03-29T04:09:40.870Z,4.63
2023-03-29T04:12:07.465Z,3.15
2023-03-29T04:14:33.910Z,2.55
2023-03-29T04:17:00.441Z,3.90
2023-03-29T04:19:26.983Z,3.33
2023-03-29T04:21:53.368Z,4.47
2023-03-29T04:24:19.820Z,5.32
2023-03-29T04:26:47.605Z,5.10
2023-03-29T04:29:14.019Z,3.58
2023-03-29T04:31:40.514Z,4.25
2023-03-29T04:34:07.132Z,5.17
2023-03-29T04:36:33.547Z,3.47
2023-03-29T04:39:01.670Z,5.05
2023-03-29T04:41:28.624Z,4.95
2023-03-29T04:43:55.916Z,4.10
2023-03-29T04:46:25.446Z,2.60
2023-03-29T04:48:52.356Z,6.75
2023-03-29T04:51:20.044Z,4.82
2023-03-29T04:53:46.512Z,3.97
2023-03-29T04:56:13.271Z,2.33
2023-03-29T04:58:39.682Z,5.33
2023-03-29T05:01:06.173Z,3.13
2023-03-29T05:03:32.604Z,5.82
2023-03-29T05:06:06.695Z,4.05
2023-03-29T05:08:34.785Z,6.05
2023-03-29T05:11:01.937Z,4.60
2023-03-29T05:13:28.517Z,3.25
2023-03-29T05:15:54.962Z,3.72
2023-03-29T05:18:22.127Z,4.30
2023-03-29T05:20:51.236Z,4.30
2023-03-29T05:23:17.637Z,3.17
2023-03-29T05:25:44.039Z,5.60
2023-03-29T05:28:10.528Z,3.08
2023-03-29T05:30:36.976Z,2.45
2023-03-29T05:33:05.542Z,3.60
2023-03-29T05:35:32.223Z,4.23
2023-03-29T05:38:00.605Z,5.30
2023-03-29T05:40:27.288Z,5.57
2023-03-29T05:42:54.030Z,3.22
2023-03-29T05:45:20.540Z,7.38
2023-03-29T05:47:46.922Z,3.13
2023-03-29T05:50:13.697Z,3.92
2023-03-29T05:52:41.005Z,3.45
2023-03-29T05:55:08.058Z,4.72
2023-03-29T05:57:38.478Z,3.20
2023-03-29T06:00:16.719Z,4.47
2023-03-29T06:02:43.725Z,4.05
2023-03-29T06:05:10.324Z,3.67
2023-03-29T06:07:38.267Z,5.65
2023-03-29T06:10:09.622Z,4.25
2023-03-29T06:12:36.440Z,5.33
2023-03-29T06:15:05.081Z,3.80
2023-03-29T06:17:33.696Z,6.30
2023-03-29T06:20:00.824Z,5.03
2023-03-29T06:22:27.733Z,3.05
2023-03-29T06:24:54.500Z,3.30
2023-03-29T06:27:21.182Z,3.33
2023-03-29T06:29:48.178Z,2.90
2023-03-29T06:32:14.822Z,4.28
2023-03-29T06:34:41.568Z,3.08
2023-03-29T06:37:08.390Z,3.20
2023-03-29T06:39:34.962Z,5.30
2023-03-29T06:42:10.065Z,6.75
2023-03-29T06:44:43.424Z,4.65
2023-03-29T06:47:09.816Z,3.45
2023-03-29T06:49:36.265Z,3.53
2023-03-29T06:52:02.728Z,7.65
2023-03-29T06:54:29.089Z,8.93
2023-03-29T06:56:55.602Z,4.90
2023-03-29T06:59:22.283Z,5.88
2023-03-29T07:01:49.177Z,5.63
2023-03-29T07:04:16.056Z,6.00
2023-03-29T07:06:48.271Z,5.03
2023-03-29T07:09:18.368Z,5.97
2023-03-29T07:11:46.658Z,9.23
2023-03-29T07:14:13.063Z,8.17
2023-03-29T07:16:39.537Z,5.85
2023-03-29T07:19:06.052Z,5.25
2023-03-29T07:21:33.375Z,4.88
2023-03-29T07:24:01.687Z,7.78
2023-03-29T07:26:30.315Z,5.60
2023-03-29T07:28:56.895Z,5.85
2023-03-29T07:31:23.304Z,4.80
2023-03-29T07:33:52.446Z,6.65
2023-03-29T07:36:19.725Z,6.32
2023-03-29T07:38:46.169Z,7.17
2023-03-29T07:41:12.695Z,10.43
2023-03-29T07:43:39.203Z,10.30
2023-03-29T07:46:06.726Z,10.85
2023-03-29T07:48:33.778Z,7.95
2023-03-29T07:51:01.356Z,9.87
2023-03-29T07:53:29.807Z,10.23
2023-03-29T07:55:56.963Z,8.60
2023-03-29T07:58:23.401Z,8.35
2023-03-29T08:00:50.677Z,9.93
2023-03-29T08:03:17.217Z,6.83
2023-03-29T08:05:43.794Z,5.57
2023-03-29T08:08:10.301Z,8.32
2023-03-29T08:10:39.224Z,6.72
2023-03-29T08:13:08.249Z,5.18
2023-03-29T08:15:36.466Z,6.53
2023-03-29T08:18:02.937Z,5.95
2023-03-29T08:20:29.517Z,7.90
2023-03-29T08:22:55.977Z,6.22
2023-03-29T08:25:22.826Z,7.15
2023-03-29T08:27:49.421Z,7.50
2023-03-29T08:30:15.938Z,5.75
2023-03-29T08:32:42.764Z,11.10
2023-03-29T08:35:09.693Z,7.38
2023-03-29T08:37:37.258Z,8.02
2023-03-29T08:40:05.514Z,7.83
2023-03-29T08:43:04.766Z,10.10
2023-03-29T08:45:43.995Z,8.07
2023-03-29T08:48:31.792Z,10.07
2023-03-29T08:51:03.366Z,10.40
2023-03-29T08:53:36.334Z,7.53
2023-03-29T08:56:13.214Z,8.63
2023-03-29T08:58:40.511Z,10.85
2023-03-29T09:01:09.434Z,9.90
2023-03-29T09:03:47.819Z,9.80
2023-03-29T09:06:16.046Z,8.80
2023-03-29T09:08:46.633Z,7.63
2023-03-29T09:11:26.204Z,8.85
2023-03-29T09:14:20.469Z,8.10
2023-03-29T09:16:56.080Z,8.35
2023-03-29T09:19:42.503Z,9.83
2023-03-29T09:22:43.711Z,7.57
2023-03-29T09:25:24.090Z,9.30
2023-03-29T09:27:59.974Z,10.93
2023-03-29T09:30:32.269Z,8.32
2023-03-29T09:33:27.371Z,11.43
2023-03-29T09:36:07.902Z,13.35
2023-03-29T09:38:40.055Z,10.88
2023-03-29T09:41:30.428Z,10.57
2023-03-29T09:44:00.363Z,11.98
2023-03-29T09:46:37.855Z,10.67
2023-03-29T09:49:10.304Z,10.80
2023-03-29T09:51:38.430Z,9.98
2023-03-29T09:54:04.995Z,8.73
2023-03-29T09:56:31.725Z,9.23
2023-03-29T09:58:58.124Z,9.93
2023-03-29T10:01:25.873Z,9.50
2023-03-29T10:03:53.771Z,10.13
2023-03-29T10:06:24.089Z,9.45
2023-03-29T10:08:57.761Z,15.00
2023-03-29T10:11:35.193Z,10.17
2023-03-29T10:14:16.841Z,9.20
2023-03-29T10:16:47.737Z,8.70
2023-03-29T10:19:30.878Z,13.63
2023-03-29T10:22:00.397Z,8.95
2023-03-29T10:24:27.474Z,13.87
2023-03-29T10:26:57.713Z,13.60
2023-03-29T10:29:25.488Z,8.13
2023-03-29T10:31:52.876Z,8.68
2023-03-29T10:34:25.183Z,9.23
2023-03-29T10:36:58.669Z,9.57
2023-03-29T10:39:29.203Z,11.02
2023-03-29T10:41:55.973Z,12.30
2023-03-29T10:44:41.063Z,11.45
2023-03-29T10:47:20.234Z,11.65
2023-03-29T10:49:53.800Z,15.17
2023-03-29T10:52:21.840Z,13.20
2023-03-29T10:54:50.934Z,12.45
2023-03-29T10:57:29.315Z,13.88
2023-03-29T11:00:06.960Z,12.43
2023-03-29T11:03:12.485Z,16.80
2023-03-29T11:05:52.225Z,15.45
2023-03-29T11:08:26.475Z,10.18
2023-03-29T11:11:13.347Z,12.77
2023-03-29T11:14:03.710Z,11.50
2023-03-29T11:16:39.054Z,15.37
2023-03-29T11:19:33.224Z,12.50
2023-03-29T11:22:05.744Z,18.70
2023-03-29T11:25:00.040Z,12.15
2023-03-29T11:27:39.847Z,15.13
2023-03-29T11:30:51.776Z,11.07
2023-03-29T11:33:42.197Z,15.40
2023-03-29T11:36:34.806Z,14.70
2023-03-29T11:39:28.571Z,13.05
2023-03-29T11:42:03.865Z,12.23
2023-03-29T11:44:31.451Z,10.80
2023-03-29T11:47:03.613Z,11.30
2023-03-29T11:49:37.304Z,10.07
2023-03-29T11:52:11.547Z,11.00
2023-03-29T11:54:44.769Z,11.25
2023-03-29T11:57:18.782Z,12.90
2023-03-29T11:59:51.308Z,13.68
2023-03-29T12:02:39.978Z,11.55
2023-03-29T12:05:22.137Z,12.07
2023-03-29T12:08:38.119Z,14.65
2023-03-29T12:11:17.396Z,15.77
2023-03-29T12:13:52.392Z,14.25
2023-03-29T12:16:32.424Z,13.65
2023-03-29T12:19:05.952Z,14.57
2023-03-29T12:21:35.243Z,15.18
2023-03-29T12:24:02.294Z,14.80
2023-03-29T12:26:37.997Z,15.38
2023-03-29T12:29:35.774Z,15.90
2023-03-29T12:32:38.200Z,16.65
2023-03-29T12:35:16.782Z,17.50
2023-03-29T12:38:21.942Z,13.33
2023-03-29T12:40:55.776Z,17.98
2023-03-29T12:43:27.218Z,18.63
2023-03-29T12:46:00.266Z,16.42
2023-03-29T12:48:29.696Z,20.13
2023-03-29T12:51:01.787Z,18.40
2023-03-29T12:53:34.614Z,16.08
2023-03-29T12:56:01.842Z,21.23
2023-03-29T12:58:59.558Z,18.58
2023-03-29T13:01:26.509Z,16.08
2023-03-29T13:04:19.318Z,19.53
2023-03-29T13:06:48.462Z,21.15
2023-03-29T13:09:32.224Z,21.85
2023-03-29T13:12:06.893Z,17.65
2023-03-29T13:14:37.394Z,20.45
2023-03-29T13:17:17.702Z,18.13
2023-03-29T13:19:49.800Z,17.05
2023-03-29T13:22:44.228Z,20.40
2023-03-29T13:25:25.640Z,14.73
2023-03-29T13:28:02.198Z,16.13
2023-03-29T13:30:49.097Z,16.30
2023-03-29T13:33:38.099Z,14.02
2023-03-29T13:36:26.165Z,14.30
2023-03-29T13:38:55.344Z,15.13
2023-03-29T13:41:39.855Z,15.02
2023-03-29T13:44:21.835Z,16.53
2023-03-29T13:47:00.521Z,14.45
2023-03-29T13:49:31.840Z,14.55
2023-03-29T13:52:21.256Z,18.30
2023-03-29T13:54:58.094Z,19.70
2023-03-29T13:57:43.902Z,17.40
2023-03-29T14:00:22.756Z,16.55
2023-03-29T14:02:52.160Z,18.33
2023-03-29T14:05:28.812Z,15.63
2023-03-29T14:07:55.837Z,16.63
2023-03-29T14:10:37.784Z,14.53
2023-03-29T14:13:04.464Z,18.85
2023-03-29T14:15:49.611Z,15.45
2023-03-29T14:18:19.252Z,15.45
2023-03-29T14:20:49.013Z,14.45
2023-03-29T14:23:21.260Z,15.47
2023-03-29T14:25:48.049Z,13.98
2023-03-29T14:28:28.383Z,16.25
2023-03-29T14:30:55.937Z,16.13
2023-03-29T14:33:31.062Z,14.07
2023-03-29T14:36:00.309Z,13.90
2023-03-29T14:38:28.388Z,13.68
2023-03-29T14:40:59.490Z,15.52
2023-03-29T14:43:30.897Z,12.73
2023-03-29T14:46:04.714Z,13.25
2023-03-29T14:48:33.165Z,13.77
2023-03-29T14:51:00.876Z,15.90
2023-03-29T14:53:28.835Z,11.95
2023-03-29T14:55:55.631Z,13.30
2023-03-29T14:58:32.319Z,12.75
2023-03-29T15:01:05.029Z,10.40
2023-03-29T15:03:45.198Z,11.23
2023-03-29T15:06:13.971Z,9.52
2023-03-29T15:08:48.195Z,14.75
2023-03-29T15:11:27.622Z,16.08
2023-03-29T15:14:08.786Z,13.52
2023-03-29T15:16:40.532Z,11.20
2023-03-29T15:19:07.220Z,10.48
2023-03-29T15:21:35.427Z,12.00
2023-03-29T15:24:05.551Z,9.35
2023-03-29T15:26:37.605Z,12.87
2023-03-29T15:29:13.156Z,9.30
2023-03-29T15:31:41.920Z,12.02
2023-03-29T15:34:13.803Z,8.38
2023-03-29T15:36:42.825Z,9.68
2023-03-29T15:39:14.414Z,7.72
2023-03-29T15:41:42.180Z,9.75
2023-03-29T15:44:09.608Z,6.30
2023-03-29T15:46:36.469Z,5.75
2023-03-29T15:49:04.868Z,7.78
2023-03-29T15:51:31.392Z,6.43
2023-03-29T15:53:57.799Z,9.98
2023-03-29T15:56:24.174Z,7.78
2023-03-29T15:58:50.929Z,7.25
2023-03-29T16:01:34.129Z,7.43
2023-03-29T16:04:02.791Z,6.43
2023-03-29T16:06:29.330Z,5.88
2023-03-29T16:08:57.331Z,9.07
2023-03-29T16:11:24.095Z,9.88
2023-03-29T16:13:51.461Z,7.78
2023-03-29T16:16:18.081Z,7.43
2023-03-29T16:18:44.605Z,6.80
2023-03-29T16:21:18.087Z,6.53
2023-03-29T16:23:48.178Z,5.63
2023-03-29T16:26:16.578Z,6.88
2023-03-29T16:28:43.502Z,8.45
2023-03-29T16:31:11.818Z,5.35
2023-03-29T16:33:39.417Z,5.35
2023-03-29T16:36:06.697Z,6.00
2023-03-29T16:38:33.756Z,5.68
2023-03-29T16:41:00.548Z,6.13
2023-03-29T16:43:27.691Z,5.03
2023-03-29T16:45:54.284Z,5.32
2023-03-29T16:48:20.784Z,6.38
2023-03-29T16:50:50.478Z,6.20
2023-03-29T16:53:21.685Z,8.90
2023-03-29T16:55:48.395Z,8.80
2023-03-29T16:58:15.411Z,6.25
2023-03-29T17:00:43.074Z,5.72
2023-03-29T17:03:10.982Z,4.80
2023-03-29T17:05:41.256Z,5.87
2023-03-29T17:08:09.881Z,6.97
2023-03-29T17:10:40.789Z,6.32
2023-03-29T17:13:08.116Z,5.97
2023-03-29T17:15:36.137Z,9.73
2023-03-29T17:18:04.890Z,7.97
2023-03-29T17:20:31.844Z,4.82
2023-03-29T17:22:58.408Z,5.22
2023-03-29T17:25:24.785Z,8.38
2023-03-29T17:27:51.755Z,9.93
2023-03-29T17:30:18.343Z,6.72
2023-03-29T17:32:45.522Z,6.43
2023-03-29T17:35:12.772Z,6.57
2023-03-29T17:37:39.424Z,7.13
2023-03-29T17:40:15.390Z,5.55
2023-03-29T17:42:42.590Z,8.05
2023-03-29T17:45:10.940Z,6.95
2023-03-29T17:47:38.550Z,5.75
2023-03-29T17:50:06.685Z,4.78
2023-03-29T17:52:33.558Z,7.18
2023-03-29T17:55:00.192Z,6.22
2023-03-29T17:57:26.842Z,5.30
2023-03-29T17:59:53.386Z,6.45
2023-03-29T18:02:23.107Z,4.88
2023-03-29T18:04:50.566Z,5.22
2023-03-29T18:07:17.412Z,5.53
2023-03-29T18:09:43.852Z,8.80
2023-03-29T18:12:10.280Z,5.40
2023-03-29T18:14:36.918Z,7.07
2023-03-29T18:17:04.050Z,6.05
2023-03-29T18:19:30.840Z,9.63
2023-03-29T18:21:57.412Z,6.78
2023-03-29T18:24:23.838Z,8.45
2023-03-29T18:26:50.317Z,5.65
2023-03-29T18:29:16.689Z,6.60
2023-03-29T18:31:43.757Z,5.95
2023-03-29T18:34:10.273Z,9.63
2023-03-29T18:36:37.103Z,5.88
2023-03-29T18:39:06.887Z,7.10
2023-03-29T18:41:35.622Z,6.53
2023-03-29T18:44:02.342Z,8.07
2023-03-29T18:46:31.173Z,8.68
2023-03-29T18:48:58.858Z,5.90
2023-03-29T18:51:28.723Z,6.63
2023-03-29T18:53:55.909Z,6.00
2023-03-29T18:56:22.907Z,6.30
2023-03-29T18:58:49.438Z,9.38
2023-03-29T19:01:16.167Z,6.40
2023-03-29T19:03:42.722Z,6.03
2023-03-29T19:06:09.778Z,7.43
2023-03-29T19:08:38.638Z,5.13
2023-03-29T19:11:08.325Z,6.13
2023-03-29T19:13:35.406Z,6.82
2023-03-29T19:16:02.430Z,6.95
2023-03-29T19:18:29.206Z,6.03
2023-03-29T19:20:56.178Z,5.00
2023-03-29T19:23:28.319Z,5.50
2023-03-29T19:25:57.112Z,6.32
2023-03-29T19:28:24.869Z,5.75
2023-03-29T19:30:51.623Z,6.72
2023-03-29T19:33:18.392Z,4.50
2023-03-29T19:35:44.919Z,6.78
2023-03-29T19:38:11.595Z,6.10
2023-03-29T19:40:38.366Z,4.63
2023-03-29T19:43:05.128Z,5.03
2023-03-29T19:45:31.655Z,5.87
2023-03-29T19:48:02.861Z,5.80
2023-03-29T19:50:31.576Z,5.85
2023-03-29T19:52:58.460Z,5.60
2023-03-29T19:55:25.924Z,6.03
2023-03-29T19:57:52.435Z,4.60
2023-03-29T20:00:24.200Z,7.05
2023-03-29T20:02:55.608Z,4.75
2023-03-29T20:05:22.800Z,7.57
2023-03-29T20:07:49.534Z,7.53
2023-03-29T20:10:16.743Z,6.00
2023-03-29T20:12:43.298Z,9.57
2023-03-29T20:15:10.522Z,12.52
2023-03-29T20:17:40.691Z,13.52
2023-03-29T20:20:12.007Z,11.63
2023-03-29T20:22:42.015Z,13.83
2023-03-29T20:25:09.403Z,11.75
2023-03-29T20:27:36.022Z,13.32
2023-03-29T20:30:03.324Z,15.63
2023-03-29T20:32:30.008Z,8.75
2023-03-29T20:34:56.526Z,6.87
2023-03-29T20:37:23.059Z,7.20
2023-03-29T20:39:49.710Z,8.57
2023-03-29T20:42:16.178Z,6.15
2023-03-29T20:44:50.288Z,6.90
2023-03-29T20:47:18.950Z,8.00
2023-03-29T20:49:45.439Z,6.60
2023-03-29T20:52:15.446Z,5.38
2023-03-29T20:54:43.729Z,7.28
2023-03-29T20:57:13.955Z,9.20
2023-03-29T20:59:41.565Z,7.60
2023-03-29T21:02:11.279Z,5.93
2023-03-29T21:04:37.783Z,7.32
2023-03-29T21:07:06.254Z,9.52
2023-03-29T21:09:34.139Z,4.45
2023-03-29T21:12:00.777Z,5.10
2023-03-29T21:14:30.144Z,7.80
2023-03-29T21:16:56.552Z,6.10
2023-03-29T21:19:24.124Z,7.15
2023-03-29T21:21:52.133Z,8.93
2023-03-29T21:24:19.140Z,6.37
2023-03-29T21:26:46.255Z,5.70
2023-03-29T21:29:13.329Z,7.10
2023-03-29T21:31:40.061Z,6.47
2023-03-29T21:34:06.605Z,6.00
2023-03-29T21:36:32.967Z,5.83
2023-03-29T21:38:59.455Z,7.53
2023-03-29T21:41:26.257Z,7.40
2023-03-29T21:43:52.645Z,7.00
2023-03-29T21:46:19.172Z,7.07
2023-03-29T21:48:45.711Z,8.32
2023-03-29T21:51:12.161Z,5.60
2023-03-29T21:53:38.654Z,6.18
2023-03-29T21:56:05.472Z,7.53
2023-03-29T21:58:32.077Z,4.97
2023-03-29T22:00:58.591Z,6.83
2023-03-29T22:03:25.555Z,6.63
2023-03-29T22:06:00.479Z,10.07
2023-03-29T22:08:27.050Z,7.05
2023-03-29T22:10:56.782Z,7.47
2023-03-29T22:13:24.932Z,6.50
2023-03-29T22:15:56.001Z,6.78
2023-03-29T22:18:22.564Z,6.57
2023-03-29T22:20:49.301Z,8.45
2023-03-29T22:23:15.734Z,7.82
2023-03-29T22:25:42.097Z,6.68
2023-03-29T22:28:08.525Z,5.50
2023-03-29T22:30:35.061Z,6.03
2023-03-29T22:33:01.566Z,6.10
2023-03-29T22:35:28.036Z,4.78
2023-03-29T22:37:54.504Z,6.67
2023-03-29T22:40:20.980Z,6.82
2023-03-29T22:42:47.380Z,6.13
2023-03-29T22:45:14.248Z,6.82
2023-03-29T22:47:40.915Z,8.60
2023-03-29T22:50:08.004Z,6.90
2023-03-29T22:52:34.553Z,6.97
2023-03-29T22:55:01.102Z,7.18
2023-03-29T22:57:27.563Z,5.78
2023-03-29T22:59:54.058Z,5.82
2023-03-29T23:02:20.493Z,6.47
2023-03-29T23:04:47.457Z,7.40
2023-03-29T23:07:13.951Z,6.85
2023-03-29T23:09:40.886Z,4.97
2023-03-29T23:12:07.584Z,5.32
2023-03-29T23:14:34.100Z,7.70
2023-03-29T23:17:00.604Z,6.78
2023-03-29T23:19:27.005Z,6.55
2023-03-29T23:21:55.329Z,5.95
2023-03-29T23:24:21.868Z,7.72
2023-03-29T23:26:48.984Z,5.77
2023-03-29T23:29:15.425Z,6.28
2023-03-29T23:31:41.933Z,7.38
2023-03-29T23:34:09.245Z,5.60
2023-03-29T23:36:35.644Z,4.50
2023-03-29T23:39:02.078Z,10.33
2023-03-29T23:41:30.465Z,5.10
2023-03-29T23:43:57.561Z,5.50
2023-03-29T23:46:24.615Z,4.35
2023-03-29T23:48:51.715Z,4.55
2023-03-29T23:51:22.936Z,4.80
2023-03-29T23:53:49.794Z,4.90
2023-03-29T23:56:16.296Z,4.43
2023-03-29T23:58:42.758Z,4.80
